メインページ
METAR-TAF:

METAR-TAF

空港 :

青森, 日本

青森空港

緯度: 40-44N, 経度: 140-42E, 海抜: 199m

現時点の気象観測

当レポートは21分前の23:18(UTC)に作成
南/南西の風 10kt
気温 -6°C
湿度 86%
気圧 1018 hPa
視程: 1000m
高度300ftの雲はほとんどない
高度800ftの雲は散在している
高度1500ftの千切れ雲あり
弱いにわか雪

METAR: RJSA 182318Z 21010KT 1000 R24/1400VP1800U -SHSN FEW003 SCT008 BKN015 M06/M08 Q1018 RMK 1ST003 3ST008 6CU015 A3007

時間: 08:39 (23:39 UTC)

予報

当レポートは6時間34分前の17:05(UTC)に作成
予報は18日の 18時(UTC)から 20日の 00時(UTC)まで有効
南西の風 13kt
視程: 8000m
高度1000ftの雲はほとんどない
高度2000ftの千切れ雲あり
高度3000ftの千切れ雲あり
弱いにわか雪
18日の 18時(UTC)から 19日の 03時(UTC)まで一時的に
視程: 1500m
高度500ftの雲はほとんどない
高度800ftの千切れ雲あり
高度1500ftの千切れ雲あり
弱いにわか雪
19日の 03時(UTC)から 19日の 09時(UTC)まで一時的に
視程: 3000m
弱いにわか雪
19日の 09時(UTC)から 19日の 15時(UTC)まで一時的に
視程: 0700m
高度300ftの雲はほとんどない
高度500ftの千切れ雲あり
高度800ftの千切れ雲あり
にわか雪
19日の 15時(UTC)から 20日の 00時(UTC)まで一時的に
視程: 3000m
弱いにわか雪

TAF: RJSA 181705Z 1818/2000 23013KT 8000 -SHSN FEW010 BKN020 BKN030 TEMPO 1818/1903 1500 -SHSN FEW005 BKN008 BKN015 TEMPO 1903/1909 3000 -SHSN TEMPO 1909/1915 0700 SHSN FEW003 BKN005 BKN008 TEMPO 1915/2000 3000 -SHSN

4,000以上の空港の気象観測と天気予報(METAR報とTAF報)

利用可能な観測所は地図上に黄色い丸と赤い丸で示す。

丸の上にカーソルを重ねると観測所名を参照できる。

次にクリックすると気象観測と天気予報を参照できる。

マップの切り替え:黒色「×」印の緑ボタンをクリックして拡大、「-」印の緑ボタンをクリックして縮小、緑色の三角印をクリックして隣りの地図に切り替え


METAR-TAF: